sensor_id;sensor_type;location;lat;lon;timestamp;temperature;humidity
39067;DHT22;24821;51.988;6.020;2023-09-12T00:00:53;21.60;99.90
39067;DHT22;24821;51.988;6.020;2023-09-12T00:03:20;21.70;99.90
39067;DHT22;24821;51.988;6.020;2023-09-12T00:05:57;21.70;99.90
39067;DHT22;24821;51.988;6.020;2023-09-12T00:08:24;21.70;99.90
39067;DHT22;24821;51.988;6.020;2023-09-12T00:13:29;21.70;99.90
39067;DHT22;24821;51.988;6.020;2023-09-12T00:15:55;21.60;99.90
39067;DHT22;24821;51.988;6.020;2023-09-12T00:18:21;21.60;99.90
39067;DHT22;24821;51.988;6.020;2023-09-12T00:20:47;21.50;99.90
39067;DHT22;24821;51.988;6.020;2023-09-12T00:23:12;21.50;99.90
39067;DHT22;24821;51.988;6.020;2023-09-12T00:25:38;21.60;99.90
39067;DHT22;24821;51.988;6.020;2023-09-12T00:28:04;21.50;99.90
39067;DHT22;24821;51.988;6.020;2023-09-12T00:30:29;21.50;99.90
39067;DHT22;24821;51.988;6.020;2023-09-12T00:32:55;21.50;99.90
39067;DHT22;24821;51.988;6.020;2023-09-12T00:35:20;21.60;99.90
39067;DHT22;24821;51.988;6.020;2023-09-12T00:37:46;21.60;99.90
39067;DHT22;24821;51.988;6.020;2023-09-12T00:40:11;21.60;99.90
39067;DHT22;24821;51.988;6.020;2023-09-12T00:42:37;21.50;99.90
39067;DHT22;24821;51.988;6.020;2023-09-12T00:45:03;21.50;99.90
39067;DHT22;24821;51.988;6.020;2023-09-12T00:47:29;21.50;99.90
39067;DHT22;24821;51.988;6.020;2023-09-12T00:49:56;21.50;99.90
39067;DHT22;24821;51.988;6.020;2023-09-12T00:52:23;21.40;99.90
39067;DHT22;24821;51.988;6.020;2023-09-12T00:54:50;21.30;99.90
39067;DHT22;24821;51.988;6.020;2023-09-12T00:57:16;21.30;99.90
39067;DHT22;24821;51.988;6.020;2023-09-12T00:59:42;21.20;99.90
39067;DHT22;24821;51.988;6.020;2023-09-12T01:02:08;21.20;99.90
39067;DHT22;24821;51.988;6.020;2023-09-12T01:04:36;21.20;99.90
39067;DHT22;24821;51.988;6.020;2023-09-12T01:07:03;21.20;99.90
39067;DHT22;24821;51.988;6.020;2023-09-12T01:09:30;21.20;99.90
39067;DHT22;24821;51.988;6.020;2023-09-12T01:11:56;21.10;99.90
39067;DHT22;24821;51.988;6.020;2023-09-12T01:14:21;21.10;99.90
39067;DHT22;24821;51.988;6.020;2023-09-12T01:16:47;21.10;99.90
39067;DHT22;24821;51.988;6.020;2023-09-12T01:19:14;21.10;99.90
39067;DHT22;24821;51.988;6.020;2023-09-12T01:24:39;21.00;99.90
39067;DHT22;24821;51.988;6.020;2023-09-12T01:27:30;21.00;99.90
39067;DHT22;24821;51.988;6.020;2023-09-12T01:30:01;21.00;99.90
39067;DHT22;24821;51.988;6.020;2023-09-12T01:32:29;21.00;99.90
39067;DHT22;24821;51.988;6.020;2023-09-12T01:34:55;20.90;99.90
39067;DHT22;24821;51.988;6.020;2023-09-12T01:37:20;20.90;99.90
39067;DHT22;24821;51.988;6.020;2023-09-12T01:39:46;20.80;99.90
39067;DHT22;24821;51.988;6.020;2023-09-12T01:42:14;20.80;99.90
39067;DHT22;24821;51.988;6.020;2023-09-12T01:44:44;20.80;99.90
39067;DHT22;24821;51.988;6.020;2023-09-12T01:47:11;20.70;99.90
39067;DHT22;24821;51.988;6.020;2023-09-12T01:49:39;20.70;99.90
39067;DHT22;24821;51.988;6.020;2023-09-12T01:52:06;20.70;99.90
39067;DHT22;24821;51.988;6.020;2023-09-12T01:54:33;20.60;99.90
39067;DHT22;24821;51.988;6.020;2023-09-12T01:57:00;20.60;99.90
39067;DHT22;24821;51.988;6.020;2023-09-12T01:59:26;20.60;99.90
39067;DHT22;24821;51.988;6.020;2023-09-12T02:01:51;20.60;99.90
39067;DHT22;24821;51.988;6.020;2023-09-12T02:04:17;20.60;99.90
39067;DHT22;24821;51.988;6.020;2023-09-12T02:06:43;20.50;99.90
39067;DHT22;24821;51.988;6.020;2023-09-12T02:09:08;20.50;99.90
39067;DHT22;24821;51.988;6.020;2023-09-12T02:11:34;20.50;99.90
39067;DHT22;24821;51.988;6.020;2023-09-12T02:13:59;20.50;99.90
39067;DHT22;24821;51.988;6.020;2023-09-12T02:16:25;20.50;99.90
39067;DHT22;24821;51.988;6.020;2023-09-12T02:18:50;20.50;99.90
39067;DHT22;24821;51.988;6.020;2023-09-12T02:21:16;20.50;99.90
39067;DHT22;24821;51.988;6.020;2023-09-12T02:23:42;20.50;99.90
39067;DHT22;24821;51.988;6.020;2023-09-12T02:26:08;20.40;99.90
39067;DHT22;24821;51.988;6.020;2023-09-12T02:28:33;20.40;99.90
39067;DHT22;24821;51.988;6.020;2023-09-12T02:30:59;20.40;99.90
39067;DHT22;24821;51.988;6.020;2023-09-12T02:33:24;20.30;99.90
39067;DHT22;24821;51.988;6.020;2023-09-12T02:35:50;20.30;99.90
39067;DHT22;24821;51.988;6.020;2023-09-12T02:38:17;20.30;99.90
39067;DHT22;24821;51.988;6.020;2023-09-12T02:40:43;20.30;99.90
39067;DHT22;24821;51.988;6.020;2023-09-12T02:43:08;20.30;99.90
39067;DHT22;24821;51.988;6.020;2023-09-12T02:45:34;20.20;99.90
39067;DHT22;24821;51.988;6.020;2023-09-12T02:48:00;20.20;99.90
39067;DHT22;24821;51.988;6.020;2023-09-12T02:50:25;20.20;99.90
39067;DHT22;24821;51.988;6.020;2023-09-12T02:52:51;20.20;99.90
39067;DHT22;24821;51.988;6.020;2023-09-12T02:55:16;20.20;99.90
39067;DHT22;24821;51.988;6.020;2023-09-12T02:57:42;20.10;99.90
39067;DHT22;24821;51.988;6.020;2023-09-12T03:00:08;20.10;99.90
39067;DHT22;24821;51.988;6.020;2023-09-12T03:02:34;20.10;99.90
39067;DHT22;24821;51.988;6.020;2023-09-12T03:05:00;20.10;99.90
39067;DHT22;24821;51.988;6.020;2023-09-12T03:07:27;20.00;99.90
39067;DHT22;24821;51.988;6.020;2023-09-12T03:09:53;20.00;99.90
39067;DHT22;24821;51.988;6.020;2023-09-12T03:12:18;20.00;99.90
39067;DHT22;24821;51.988;6.020;2023-09-12T03:14:44;20.00;99.90
39067;DHT22;24821;51.988;6.020;2023-09-12T03:17:09;20.00;99.90
39067;DHT22;24821;51.988;6.020;2023-09-12T03:19:35;20.00;99.90
39067;DHT22;24821;51.988;6.020;2023-09-12T03:22:00;20.10;99.90
39067;DHT22;24821;51.988;6.020;2023-09-12T03:24:26;20.10;99.90
39067;DHT22;24821;51.988;6.020;2023-09-12T03:26:54;20.10;99.90
39067;DHT22;24821;51.988;6.020;2023-09-12T03:29:19;20.10;99.90
39067;DHT22;24821;51.988;6.020;2023-09-12T03:31:45;20.20;99.90
39067;DHT22;24821;51.988;6.020;2023-09-12T03:34:10;20.20;99.90
39067;DHT22;24821;51.988;6.020;2023-09-12T03:36:36;20.20;99.90
39067;DHT22;24821;51.988;6.020;2023-09-12T03:39:02;20.30;99.90
39067;DHT22;24821;51.988;6.020;2023-09-12T03:41:30;20.30;99.90
39067;DHT22;24821;51.988;6.020;2023-09-12T03:43:56;20.20;99.90
39067;DHT22;24821;51.988;6.020;2023-09-12T03:46:21;20.20;99.90
39067;DHT22;24821;51.988;6.020;2023-09-12T03:48:47;20.20;99.90
39067;DHT22;24821;51.988;6.020;2023-09-12T03:51:13;20.20;99.90
39067;DHT22;24821;51.988;6.020;2023-09-12T03:53:39;20.20;99.90
39067;DHT22;24821;51.988;6.020;2023-09-12T03:56:04;20.20;99.90
39067;DHT22;24821;51.988;6.020;2023-09-12T03:58:30;20.30;99.90
39067;DHT22;24821;51.988;6.020;2023-09-12T04:00:55;20.20;99.90
39067;DHT22;24821;51.988;6.020;2023-09-12T04:03:21;20.30;99.90
39067;DHT22;24821;51.988;6.020;2023-09-12T04:05:47;20.30;99.90
39067;DHT22;24821;51.988;6.020;2023-09-12T04:08:13;20.30;99.90
39067;DHT22;24821;51.988;6.020;2023-09-12T04:10:39;20.30;99.90
39067;DHT22;24821;51.988;6.020;2023-09-12T04:13:04;20.30;99.90
39067;DHT22;24821;51.988;6.020;2023-09-12T04:15:30;20.30;99.90
39067;DHT22;24821;51.988;6.020;2023-09-12T04:17:55;20.30;99.90
39067;DHT22;24821;51.988;6.020;2023-09-12T04:20:21;20.30;99.90
39067;DHT22;24821;51.988;6.020;2023-09-12T04:22:47;20.30;99.90
39067;DHT22;24821;51.988;6.020;2023-09-12T04:25:12;20.30;99.90
39067;DHT22;24821;51.988;6.020;2023-09-12T04:27:38;20.30;99.90
39067;DHT22;24821;51.988;6.020;2023-09-12T04:30:04;20.30;99.90
39067;DHT22;24821;51.988;6.020;2023-09-12T04:32:30;20.30;99.90
39067;DHT22;24821;51.988;6.020;2023-09-12T04:34:55;20.20;99.90
39067;DHT22;24821;51.988;6.020;2023-09-12T04:37:21;20.20;99.90
39067;DHT22;24821;51.988;6.020;2023-09-12T04:39:46;20.20;99.90
39067;DHT22;24821;51.988;6.020;2023-09-12T04:42:12;20.20;99.90
39067;DHT22;24821;51.988;6.020;2023-09-12T04:44:41;20.20;99.90
39067;DHT22;24821;51.988;6.020;2023-09-12T04:47:07;20.20;99.90
39067;DHT22;24821;51.988;6.020;2023-09-12T04:49:33;20.10;99.90
39067;DHT22;24821;51.988;6.020;2023-09-12T04:51:59;20.10;99.90
39067;DHT22;24821;51.988;6.020;2023-09-12T04:54:24;20.00;99.90
39067;DHT22;24821;51.988;6.020;2023-09-12T04:56:50;20.00;99.90
39067;DHT22;24821;51.988;6.020;2023-09-12T04:59:15;19.90;99.90
39067;DHT22;24821;51.988;6.020;2023-09-12T05:01:41;19.90;99.90
39067;DHT22;24821;51.988;6.020;2023-09-12T05:04:07;19.90;99.90
39067;DHT22;24821;51.988;6.020;2023-09-12T05:06:32;20.00;99.90
39067;DHT22;24821;51.988;6.020;2023-09-12T05:08:58;20.00;99.90
39067;DHT22;24821;51.988;6.020;2023-09-12T05:11:24;20.00;99.90
39067;DHT22;24821;51.988;6.020;2023-09-12T05:13:50;20.10;99.90
39067;DHT22;24821;51.988;6.020;2023-09-12T05:16:15;20.10;99.90
39067;DHT22;24821;51.988;6.020;2023-09-12T05:18:41;20.00;99.90
39067;DHT22;24821;51.988;6.020;2023-09-12T05:21:06;20.00;99.90
39067;DHT22;24821;51.988;6.020;2023-09-12T05:23:32;20.10;99.90
39067;DHT22;24821;51.988;6.020;2023-09-12T05:25:58;20.10;99.90
39067;DHT22;24821;51.988;6.020;2023-09-12T05:28:23;20.10;99.90
39067;DHT22;24821;51.988;6.020;2023-09-12T05:30:49;20.10;99.90
39067;DHT22;24821;51.988;6.020;2023-09-12T05:33:14;20.20;99.90
39067;DHT22;24821;51.988;6.020;2023-09-12T05:35:40;20.20;99.90
39067;DHT22;24821;51.988;6.020;2023-09-12T05:38:06;20.20;99.90
39067;DHT22;24821;51.988;6.020;2023-09-12T05:40:31;20.20;99.90
39067;DHT22;24821;51.988;6.020;2023-09-12T05:42:57;20.20;99.90
39067;DHT22;24821;51.988;6.020;2023-09-12T05:45:22;20.30;99.90
39067;DHT22;24821;51.988;6.020;2023-09-12T05:47:48;20.30;99.90
39067;DHT22;24821;51.988;6.020;2023-09-12T05:50:16;20.30;99.90
39067;DHT22;24821;51.988;6.020;2023-09-12T05:52:41;20.40;99.90
39067;DHT22;24821;51.988;6.020;2023-09-12T05:55:08;20.40;99.90
39067;DHT22;24821;51.988;6.020;2023-09-12T05:57:34;20.40;99.90
39067;DHT22;24821;51.988;6.020;2023-09-12T05:59:59;20.50;99.90
39067;DHT22;24821;51.988;6.020;2023-09-12T06:02:27;20.50;99.90
39067;DHT22;24821;51.988;6.020;2023-09-12T06:04:52;20.60;99.90
39067;DHT22;24821;51.988;6.020;2023-09-12T06:07:18;20.60;99.90
39067;DHT22;24821;51.988;6.020;2023-09-12T06:09:44;20.60;99.90
39067;DHT22;24821;51.988;6.020;2023-09-12T06:12:10;20.60;99.90
39067;DHT22;24821;51.988;6.020;2023-09-12T06:14:35;20.60;99.90
39067;DHT22;24821;51.988;6.020;2023-09-12T06:17:01;20.70;99.90
39067;DHT22;24821;51.988;6.020;2023-09-12T06:19:27;20.70;99.90
39067;DHT22;24821;51.988;6.020;2023-09-12T06:21:52;20.70;99.90
39067;DHT22;24821;51.988;6.020;2023-09-12T06:24:21;20.70;99.90
39067;DHT22;24821;51.988;6.020;2023-09-12T06:26:47;20.80;99.90
39067;DHT22;24821;51.988;6.020;2023-09-12T06:29:13;20.90;99.90
39067;DHT22;24821;51.988;6.020;2023-09-12T06:31:39;20.90;99.90
39067;DHT22;24821;51.988;6.020;2023-09-12T06:34:07;20.90;99.90
39067;DHT22;24821;51.988;6.020;2023-09-12T06:36:32;21.00;99.90
39067;DHT22;24821;51.988;6.020;2023-09-12T06:38:59;21.00;99.90
39067;DHT22;24821;51.988;6.020;2023-09-12T06:41:25;21.00;99.90
39067;DHT22;24821;51.988;6.020;2023-09-12T06:43:51;21.00;99.90
39067;DHT22;24821;51.988;6.020;2023-09-12T06:46:17;21.10;99.90
39067;DHT22;24821;51.988;6.020;2023-09-12T06:48:43;21.10;99.90
39067;DHT22;24821;51.988;6.020;2023-09-12T06:51:10;21.10;99.90
39067;DHT22;24821;51.988;6.020;2023-09-12T06:53:36;21.10;99.90
39067;DHT22;24821;51.988;6.020;2023-09-12T06:56:05;21.00;99.90
39067;DHT22;24821;51.988;6.020;2023-09-12T06:58:31;21.00;99.90
39067;DHT22;24821;51.988;6.020;2023-09-12T07:01:05;21.00;99.90
39067;DHT22;24821;51.988;6.020;2023-09-12T07:03:32;21.00;99.90
39067;DHT22;24821;51.988;6.020;2023-09-12T07:05:58;21.10;99.90
39067;DHT22;24821;51.988;6.020;2023-09-12T07:08:24;21.10;99.90
39067;DHT22;24821;51.988;6.020;2023-09-12T07:10:49;21.10;99.90
39067;DHT22;24821;51.988;6.020;2023-09-12T07:13:15;21.10;99.90
39067;DHT22;24821;51.988;6.020;2023-09-12T07:15:41;21.10;99.90
39067;DHT22;24821;51.988;6.020;2023-09-12T07:18:06;21.10;99.90
39067;DHT22;24821;51.988;6.020;2023-09-12T07:20:33;21.20;99.90
39067;DHT22;24821;51.988;6.020;2023-09-12T07:22:59;21.20;99.90
39067;DHT22;24821;51.988;6.020;2023-09-12T07:25:25;21.30;99.90
39067;DHT22;24821;51.988;6.020;2023-09-12T07:27:50;21.40;99.90
39067;DHT22;24821;51.988;6.020;2023-09-12T07:30:18;21.40;99.90
39067;DHT22;24821;51.988;6.020;2023-09-12T07:32:44;21.50;99.90
39067;DHT22;24821;51.988;6.020;2023-09-12T07:35:10;21.50;99.90
39067;DHT22;24821;51.988;6.020;2023-09-12T07:37:36;21.50;99.90
39067;DHT22;24821;51.988;6.020;2023-09-12T07:40:01;21.60;99.90
39067;DHT22;24821;51.988;6.020;2023-09-12T07:42:32;21.60;99.90
39067;DHT22;24821;51.988;6.020;2023-09-12T07:44:58;21.70;99.90
39067;DHT22;24821;51.988;6.020;2023-09-12T07:47:23;21.70;99.90
39067;DHT22;24821;51.988;6.020;2023-09-12T07:49:55;21.80;99.90
39067;DHT22;24821;51.988;6.020;2023-09-12T07:52:21;21.80;99.90
39067;DHT22;24821;51.988;6.020;2023-09-12T07:54:46;21.90;99.90
39067;DHT22;24821;51.988;6.020;2023-09-12T07:57:12;21.90;99.90
39067;DHT22;24821;51.988;6.020;2023-09-12T07:59:38;22.00;99.90
39067;DHT22;24821;51.988;6.020;2023-09-12T08:02:03;22.00;99.90
39067;DHT22;24821;51.988;6.020;2023-09-12T08:04:29;22.00;99.90
39067;DHT22;24821;51.988;6.020;2023-09-12T08:06:55;22.00;99.90
39067;DHT22;24821;51.988;6.020;2023-09-12T08:09:20;22.10;99.90
39067;DHT22;24821;51.988;6.020;2023-09-12T08:11:46;22.10;99.90
39067;DHT22;24821;51.988;6.020;2023-09-12T08:14:11;22.00;99.90
39067;DHT22;24821;51.988;6.020;2023-09-12T08:16:37;22.00;99.90
39067;DHT22;24821;51.988;6.020;2023-09-12T08:19:03;22.00;99.90
39067;DHT22;24821;51.988;6.020;2023-09-12T08:21:28;22.00;99.90
39067;DHT22;24821;51.988;6.020;2023-09-12T08:23:54;22.00;99.90
39067;DHT22;24821;51.988;6.020;2023-09-12T08:26:20;22.10;99.90
39067;DHT22;24821;51.988;6.020;2023-09-12T08:28:45;22.10;99.90
39067;DHT22;24821;51.988;6.020;2023-09-12T08:31:11;22.20;99.90
39067;DHT22;24821;51.988;6.020;2023-09-12T08:33:37;22.40;99.90
39067;DHT22;24821;51.988;6.020;2023-09-12T08:36:02;22.80;99.90
39067;DHT22;24821;51.988;6.020;2023-09-12T08:38:28;23.30;99.90
39067;DHT22;24821;51.988;6.020;2023-09-12T08:40:54;23.60;99.90
39067;DHT22;24821;51.988;6.020;2023-09-12T08:43:20;23.90;99.90
39067;DHT22;24821;51.988;6.020;2023-09-12T08:45:46;23.90;99.90
39067;DHT22;24821;51.988;6.020;2023-09-12T08:48:13;23.90;99.90
39067;DHT22;24821;51.988;6.020;2023-09-12T08:50:41;24.10;99.90
39067;DHT22;24821;51.988;6.020;2023-09-12T08:53:07;24.30;99.90
39067;DHT22;24821;51.988;6.020;2023-09-12T08:55:33;24.50;99.90
39067;DHT22;24821;51.988;6.020;2023-09-12T08:58:02;24.70;99.90
39067;DHT22;24821;51.988;6.020;2023-09-12T09:00:28;24.70;99.90
39067;DHT22;24821;51.988;6.020;2023-09-12T09:02:54;24.90;99.90
39067;DHT22;24821;51.988;6.020;2023-09-12T09:05:21;24.90;99.90
39067;DHT22;24821;51.988;6.020;2023-09-12T09:07:48;24.90;99.90
39067;DHT22;24821;51.988;6.020;2023-09-12T09:10:16;24.90;99.90
39067;DHT22;24821;51.988;6.020;2023-09-12T09:12:44;24.70;99.90
39067;DHT22;24821;51.988;6.020;2023-09-12T09:15:29;24.50;99.90
39067;DHT22;24821;51.988;6.020;2023-09-12T09:17:56;24.50;99.90
39067;DHT22;24821;51.988;6.020;2023-09-12T09:20:32;24.30;99.90
39067;DHT22;24821;51.988;6.020;2023-09-12T09:23:03;24.20;99.90
39067;DHT22;24821;51.988;6.020;2023-09-12T09:25:43;24.10;99.90
39067;DHT22;24821;51.988;6.020;2023-09-12T09:28:20;23.90;99.90
39067;DHT22;24821;51.988;6.020;2023-09-12T09:30:50;23.80;99.90
39067;DHT22;24821;51.988;6.020;2023-09-12T09:33:17;23.90;99.90
39067;DHT22;24821;51.988;6.020;2023-09-12T09:35:45;23.90;99.90
39067;DHT22;24821;51.988;6.020;2023-09-12T09:38:11;23.90;99.90
39067;DHT22;24821;51.988;6.020;2023-09-12T09:40:42;23.80;99.90
39067;DHT22;24821;51.988;6.020;2023-09-12T09:43:07;23.90;99.90
39067;DHT22;24821;51.988;6.020;2023-09-12T09:45:43;23.80;99.90
39067;DHT22;24821;51.988;6.020;2023-09-12T09:48:09;23.80;99.90
39067;DHT22;24821;51.988;6.020;2023-09-12T09:50:35;23.80;99.90
39067;DHT22;24821;51.988;6.020;2023-09-12T09:53:04;23.80;99.90
39067;DHT22;24821;51.988;6.020;2023-09-12T09:55:33;23.80;99.90
39067;DHT22;24821;51.988;6.020;2023-09-12T09:57:59;23.90;99.90
39067;DHT22;24821;51.988;6.020;2023-09-12T10:00:25;24.00;99.90
39067;DHT22;24821;51.988;6.020;2023-09-12T10:02:54;24.10;99.90
39067;DHT22;24821;51.988;6.020;2023-09-12T10:05:21;24.10;99.90
39067;DHT22;24821;51.988;6.020;2023-09-12T10:07:49;24.10;99.90
39067;DHT22;24821;51.988;6.020;2023-09-12T10:10:18;24.20;99.90
39067;DHT22;24821;51.988;6.020;2023-09-12T10:12:55;24.20;99.90
39067;DHT22;24821;51.988;6.020;2023-09-12T10:15:22;24.30;99.90
39067;DHT22;24821;51.988;6.020;2023-09-12T10:17:57;24.40;99.90
39067;DHT22;24821;51.988;6.020;2023-09-12T10:20:26;24.50;99.90
39067;DHT22;24821;51.988;6.020;2023-09-12T10:23:07;24.60;99.90
39067;DHT22;24821;51.988;6.020;2023-09-12T10:25:36;24.70;99.90
39067;DHT22;24821;51.988;6.020;2023-09-12T10:28:04;24.70;99.90
39067;DHT22;24821;51.988;6.020;2023-09-12T10:30:31;24.80;99.90
39067;DHT22;24821;51.988;6.020;2023-09-12T10:32:58;24.80;99.90
39067;DHT22;24821;51.988;6.020;2023-09-12T10:35:26;24.80;99.90
39067;DHT22;24821;51.988;6.020;2023-09-12T10:37:54;24.90;99.90
39067;DHT22;24821;51.988;6.020;2023-09-12T10:40:23;25.00;99.90
39067;DHT22;24821;51.988;6.020;2023-09-12T10:42:49;25.20;99.60
39067;DHT22;24821;51.988;6.020;2023-09-12T10:45:16;25.30;99.10
39067;DHT22;24821;51.988;6.020;2023-09-12T10:47:42;25.50;99.20
39067;DHT22;24821;51.988;6.020;2023-09-12T10:50:08;25.70;98.80
39067;DHT22;24821;51.988;6.020;2023-09-12T10:52:34;25.80;98.10
39067;DHT22;24821;51.988;6.020;2023-09-12T10:55:05;25.90;98.00
39067;DHT22;24821;51.988;6.020;2023-09-12T10:57:31;26.00;97.50
39067;DHT22;24821;51.988;6.020;2023-09-12T11:02:39;26.10;97.50
39067;DHT22;24821;51.988;6.020;2023-09-12T11:05:07;26.20;97.00
39067;DHT22;24821;51.988;6.020;2023-09-12T11:07:59;26.20;96.70
39067;DHT22;24821;51.988;6.020;2023-09-12T11:10:26;26.10;97.00
39067;DHT22;24821;51.988;6.020;2023-09-12T11:12:53;26.10;97.20
39067;DHT22;24821;51.988;6.020;2023-09-12T11:15:21;26.00;97.20
39067;DHT22;24821;51.988;6.020;2023-09-12T11:17:48;25.90;97.30
39067;DHT22;24821;51.988;6.020;2023-09-12T11:20:15;25.80;97.40
39067;DHT22;24821;51.988;6.020;2023-09-12T11:22:43;25.70;97.40
39067;DHT22;24821;51.988;6.020;2023-09-12T11:25:26;25.70;97.60
39067;DHT22;24821;51.988;6.020;2023-09-12T11:30:22;25.50;98.30
39067;DHT22;24821;51.988;6.020;2023-09-12T11:32:50;25.50;98.20
39067;DHT22;24821;51.988;6.020;2023-09-12T11:35:16;25.40;97.90
39067;DHT22;24821;51.988;6.020;2023-09-12T11:37:58;25.30;98.30
39067;DHT22;24821;51.988;6.020;2023-09-12T11:40:25;25.50;98.10
39067;DHT22;24821;51.988;6.020;2023-09-12T11:42:52;25.60;98.30
39067;DHT22;24821;51.988;6.020;2023-09-12T11:45:19;25.70;98.20
39067;DHT22;24821;51.988;6.020;2023-09-12T11:47:46;25.90;97.80
39067;DHT22;24821;51.988;6.020;2023-09-12T11:50:34;26.00;98.20
39067;DHT22;24821;51.988;6.020;2023-09-12T11:53:06;26.20;97.60
39067;DHT22;24821;51.988;6.020;2023-09-12T11:55:53;26.20;97.50
39067;DHT22;24821;51.988;6.020;2023-09-12T11:58:20;26.30;97.30
39067;DHT22;24821;51.988;6.020;2023-09-12T12:00:51;26.30;97.30
39067;DHT22;24821;51.988;6.020;2023-09-12T12:03:18;26.50;97.60
39067;DHT22;24821;51.988;6.020;2023-09-12T12:05:45;26.60;97.60
39067;DHT22;24821;51.988;6.020;2023-09-12T12:08:11;26.80;97.40
39067;DHT22;24821;51.988;6.020;2023-09-12T12:10:37;26.90;96.00
39067;DHT22;24821;51.988;6.020;2023-09-12T12:13:05;27.00;96.20
39067;DHT22;24821;51.988;6.020;2023-09-12T12:15:30;27.10;96.40
39067;DHT22;24821;51.988;6.020;2023-09-12T12:17:56;27.20;95.50
39067;DHT22;24821;51.988;6.020;2023-09-12T12:20:22;27.20;95.30
39067;DHT22;24821;51.988;6.020;2023-09-12T12:22:48;27.20;95.20
39067;DHT22;24821;51.988;6.020;2023-09-12T12:25:14;27.20;95.40
39067;DHT22;24821;51.988;6.020;2023-09-12T12:27:41;27.20;95.50
39067;DHT22;24821;51.988;6.020;2023-09-12T12:30:09;27.20;95.90
39067;DHT22;24821;51.988;6.020;2023-09-12T12:32:39;27.20;95.30
39067;DHT22;24821;51.988;6.020;2023-09-12T12:35:05;27.30;95.50
39067;DHT22;24821;51.988;6.020;2023-09-12T12:37:32;27.30;95.50
39067;DHT22;24821;51.988;6.020;2023-09-12T12:39:59;27.30;95.10
39067;DHT22;24821;51.988;6.020;2023-09-12T12:42:35;27.40;94.80
39067;DHT22;24821;51.988;6.020;2023-09-12T12:45:01;27.50;95.10
39067;DHT22;24821;51.988;6.020;2023-09-12T12:47:27;27.50;93.90
39067;DHT22;24821;51.988;6.020;2023-09-12T12:49:54;27.40;94.70
39067;DHT22;24821;51.988;6.020;2023-09-12T12:52:25;27.40;95.10
39067;DHT22;24821;51.988;6.020;2023-09-12T12:54:51;27.40;95.10
39067;DHT22;24821;51.988;6.020;2023-09-12T12:57:20;27.40;94.50
39067;DHT22;24821;51.988;6.020;2023-09-12T12:59:49;27.40;94.50
39067;DHT22;24821;51.988;6.020;2023-09-12T13:02:15;27.40;94.60
39067;DHT22;24821;51.988;6.020;2023-09-12T13:04:40;27.30;94.70
39067;DHT22;24821;51.988;6.020;2023-09-12T13:07:06;27.30;94.50
39067;DHT22;24821;51.988;6.020;2023-09-12T13:09:32;27.40;95.10
39067;DHT22;24821;51.988;6.020;2023-09-12T13:11:59;27.30;95.10
39067;DHT22;24821;51.988;6.020;2023-09-12T13:14:24;27.20;95.10
39067;DHT22;24821;51.988;6.020;2023-09-12T13:16:56;27.30;95.50
39067;DHT22;24821;51.988;6.020;2023-09-12T13:19:22;27.20;95.00
39067;DHT22;24821;51.988;6.020;2023-09-12T13:21:48;27.30;95.50
39067;DHT22;24821;51.988;6.020;2023-09-12T13:24:13;27.40;95.70
39067;DHT22;24821;51.988;6.020;2023-09-12T13:26:39;27.40;95.80
39067;DHT22;24821;51.988;6.020;2023-09-12T13:29:05;27.50;95.20
39067;DHT22;24821;51.988;6.020;2023-09-12T13:31:31;27.40;94.50
39067;DHT22;24821;51.988;6.020;2023-09-12T13:33:59;27.40;94.90
39067;DHT22;24821;51.988;6.020;2023-09-12T13:36:25;27.30;94.50
39067;DHT22;24821;51.988;6.020;2023-09-12T13:38:51;27.20;94.90
39067;DHT22;24821;51.988;6.020;2023-09-12T13:41:17;27.20;94.90
39067;DHT22;24821;51.988;6.020;2023-09-12T13:43:43;27.10;95.10
39067;DHT22;24821;51.988;6.020;2023-09-12T13:46:12;27.00;94.70
39067;DHT22;24821;51.988;6.020;2023-09-12T13:48:38;26.90;94.60
39067;DHT22;24821;51.988;6.020;2023-09-12T13:51:03;26.90;94.70
39067;DHT22;24821;51.988;6.020;2023-09-12T13:53:30;26.90;94.80
39067;DHT22;24821;51.988;6.020;2023-09-12T13:55:55;26.90;94.40
39067;DHT22;24821;51.988;6.020;2023-09-12T13:58:22;26.90;94.50
39067;DHT22;24821;51.988;6.020;2023-09-12T14:00:48;27.00;94.90
39067;DHT22;24821;51.988;6.020;2023-09-12T14:03:14;27.00;95.00
39067;DHT22;24821;51.988;6.020;2023-09-12T14:05:40;26.90;94.80
39067;DHT22;24821;51.988;6.020;2023-09-12T14:08:06;26.90;94.80
39067;DHT22;24821;51.988;6.020;2023-09-12T14:10:31;26.90;94.70
39067;DHT22;24821;51.988;6.020;2023-09-12T14:12:57;26.90;94.70
39067;DHT22;24821;51.988;6.020;2023-09-12T14:15:22;26.90;94.70
39067;DHT22;24821;51.988;6.020;2023-09-12T14:17:48;26.80;94.30
39067;DHT22;24821;51.988;6.020;2023-09-12T14:20:14;26.70;94.30
39067;DHT22;24821;51.988;6.020;2023-09-12T14:22:42;26.40;94.70
39067;DHT22;24821;51.988;6.020;2023-09-12T14:25:09;26.30;95.10
39067;DHT22;24821;51.988;6.020;2023-09-12T14:27:42;26.10;95.50
39067;DHT22;24821;51.988;6.020;2023-09-12T14:30:09;26.00;95.70
39067;DHT22;24821;51.988;6.020;2023-09-12T14:32:36;25.90;95.60
39067;DHT22;24821;51.988;6.020;2023-09-12T14:35:03;25.90;95.90
39067;DHT22;24821;51.988;6.020;2023-09-12T14:37:28;25.90;96.00
39067;DHT22;24821;51.988;6.020;2023-09-12T14:39:54;26.00;95.90
39067;DHT22;24821;51.988;6.020;2023-09-12T14:42:21;26.10;96.10
39067;DHT22;24821;51.988;6.020;2023-09-12T14:44:47;26.10;95.80
39067;DHT22;24821;51.988;6.020;2023-09-12T14:47:13;26.10;95.80
39067;DHT22;24821;51.988;6.020;2023-09-12T14:49:38;26.10;95.90
39067;DHT22;24821;51.988;6.020;2023-09-12T14:52:04;26.10;96.00
39067;DHT22;24821;51.988;6.020;2023-09-12T14:54:30;26.10;96.00
39067;DHT22;24821;51.988;6.020;2023-09-12T14:56:56;26.00;95.90
39067;DHT22;24821;51.988;6.020;2023-09-12T14:59:21;26.00;96.20
39067;DHT22;24821;51.988;6.020;2023-09-12T15:01:47;25.90;96.30
39067;DHT22;24821;51.988;6.020;2023-09-12T15:04:12;25.90;96.40
39067;DHT22;24821;51.988;6.020;2023-09-12T15:06:38;25.90;96.60
39067;DHT22;24821;51.988;6.020;2023-09-12T15:09:04;25.90;96.30
39067;DHT22;24821;51.988;6.020;2023-09-12T15:11:30;25.90;96.20
39067;DHT22;24821;51.988;6.020;2023-09-12T15:13:57;25.80;96.40
39067;DHT22;24821;51.988;6.020;2023-09-12T15:16:22;25.80;96.80
39067;DHT22;24821;51.988;6.020;2023-09-12T15:18:50;25.80;96.90
39067;DHT22;24821;51.988;6.020;2023-09-12T15:21:16;25.80;97.00
39067;DHT22;24821;51.988;6.020;2023-09-12T15:23:41;25.80;97.20
39067;DHT22;24821;51.988;6.020;2023-09-12T15:26:07;25.80;97.50
39067;DHT22;24821;51.988;6.020;2023-09-12T15:28:32;25.70;97.50
39067;DHT22;24821;51.988;6.020;2023-09-12T15:30:58;25.70;97.50
39067;DHT22;24821;51.988;6.020;2023-09-12T15:33:27;25.70;97.60
39067;DHT22;24821;51.988;6.020;2023-09-12T15:35:52;25.70;97.50
39067;DHT22;24821;51.988;6.020;2023-09-12T15:38:18;25.70;97.60